sensor_id;sensor_type;location;lat;lon;timestamp;pressure;altitude;pressure_sealevel;temperature;humidity
25510;BME280;13413;52.336;21.200;2023-03-18T00:02:46;101055.73;;;6.09;43.92
25510;BME280;13413;52.336;21.200;2023-03-18T00:05:38;101062.61;;;6.02;43.87
25510;BME280;13413;52.336;21.200;2023-03-18T00:08:29;101060.06;;;6.07;44.01
25510;BME280;13413;52.336;21.200;2023-03-18T00:11:21;101061.88;;;6.09;44.10
25510;BME280;13413;52.336;21.200;2023-03-18T00:14:13;101058.26;;;6.06;43.94
25510;BME280;13413;52.336;21.200;2023-03-18T00:17:05;101053.80;;;5.94;43.94
25510;BME280;13413;52.336;21.200;2023-03-18T00:19:57;101058.06;;;5.94;44.00
25510;BME280;13413;52.336;21.200;2023-03-18T00:22:49;101059.38;;;5.95;43.93
25510;BME280;13413;52.336;21.200;2023-03-18T00:31:42;101047.23;;;5.97;44.13
25510;BME280;13413;52.336;21.200;2023-03-18T00:34:35;101046.91;;;5.97;44.03
25510;BME280;13413;52.336;21.200;2023-03-18T00:37:27;101048.86;;;5.94;44.01
25510;BME280;13413;52.336;21.200;2023-03-18T00:40:19;101048.02;;;5.88;44.08
25510;BME280;13413;52.336;21.200;2023-03-18T00:43:11;101046.36;;;5.91;44.24
25510;BME280;13413;52.336;21.200;2023-03-18T00:46:03;101040.42;;;5.88;44.26
25510;BME280;13413;52.336;21.200;2023-03-18T00:48:56;101034.92;;;5.85;44.32
25510;BME280;13413;52.336;21.200;2023-03-18T00:51:49;101033.38;;;5.81;44.24
25510;BME280;13413;52.336;21.200;2023-03-18T00:54:41;101030.28;;;5.76;44.33
25510;BME280;13413;52.336;21.200;2023-03-18T00:57:34;101028.04;;;5.73;44.33
25510;BME280;13413;52.336;21.200;2023-03-18T01:00:26;101023.27;;;5.73;44.34
25510;BME280;13413;52.336;21.200;2023-03-18T01:03:18;101024.79;;;5.76;44.50
25510;BME280;13413;52.336;21.200;2023-03-18T01:06:11;101024.09;;;5.76;44.49
25510;BME280;13413;52.336;21.200;2023-03-18T01:09:05;101025.98;;;5.74;44.45
25510;BME280;13413;52.336;21.200;2023-03-18T01:11:57;101019.35;;;5.70;44.51
25510;BME280;13413;52.336;21.200;2023-03-18T01:14:49;101018.42;;;5.73;44.51
25510;BME280;13413;52.336;21.200;2023-03-18T01:17:42;101012.69;;;5.68;44.49
25510;BME280;13413;52.336;21.200;2023-03-18T01:20:34;101008.85;;;5.65;44.54
25510;BME280;13413;52.336;21.200;2023-03-18T01:23:26;101005.96;;;5.66;44.59
25510;BME280;13413;52.336;21.200;2023-03-18T01:26:18;101000.55;;;5.64;44.53
25510;BME280;13413;52.336;21.200;2023-03-18T01:29:10;101000.55;;;5.62;44.61
25510;BME280;13413;52.336;21.200;2023-03-18T01:32:02;100997.34;;;5.60;44.51
25510;BME280;13413;52.336;21.200;2023-03-18T01:34:55;100994.09;;;5.59;44.55
25510;BME280;13413;52.336;21.200;2023-03-18T01:37:47;100990.78;;;5.54;44.71
25510;BME280;13413;52.336;21.200;2023-03-18T01:40:39;100986.15;;;5.57;44.65
25510;BME280;13413;52.336;21.200;2023-03-18T01:43:32;100975.96;;;5.49;44.49
25510;BME280;13413;52.336;21.200;2023-03-18T01:46:29;100981.29;;;5.51;44.52
25510;BME280;13413;52.336;21.200;2023-03-18T01:49:23;100979.80;;;5.47;44.46
25510;BME280;13413;52.336;21.200;2023-03-18T01:52:16;100981.09;;;5.49;44.46
25510;BME280;13413;52.336;21.200;2023-03-18T01:55:11;100983.81;;;5.50;44.68
25510;BME280;13413;52.336;21.200;2023-03-18T01:58:06;100982.83;;;5.43;44.72
25510;BME280;13413;52.336;21.200;2023-03-18T02:01:00;100978.86;;;5.42;44.64
25510;BME280;13413;52.336;21.200;2023-03-18T02:03:54;100977.71;;;5.39;44.64
25510;BME280;13413;52.336;21.200;2023-03-18T02:06:47;100979.06;;;5.46;44.65
25510;BME280;13413;52.336;21.200;2023-03-18T02:09:39;100986.18;;;5.41;44.55
25510;BME280;13413;52.336;21.200;2023-03-18T02:12:32;100986.33;;;5.39;44.75
25510;BME280;13413;52.336;21.200;2023-03-18T02:15:28;100985.77;;;5.39;44.75
25510;BME280;13413;52.336;21.200;2023-03-18T02:18:21;100984.66;;;5.36;44.80
25510;BME280;13413;52.336;21.200;2023-03-18T02:21:18;100980.29;;;5.35;44.87
25510;BME280;13413;52.336;21.200;2023-03-18T02:24:13;100978.73;;;5.33;44.98
25510;BME280;13413;52.336;21.200;2023-03-18T02:27:15;100978.16;;;5.29;44.90
25510;BME280;13413;52.336;21.200;2023-03-18T02:30:10;100983.48;;;5.29;44.92
25510;BME280;13413;52.336;21.200;2023-03-18T02:33:03;100977.86;;;5.29;45.08
25510;BME280;13413;52.336;21.200;2023-03-18T02:35:57;100973.98;;;5.29;44.89
25510;BME280;13413;52.336;21.200;2023-03-18T02:38:52;100971.91;;;5.27;44.97
25510;BME280;13413;52.336;21.200;2023-03-18T02:41:45;100971.09;;;5.24;45.01
25510;BME280;13413;52.336;21.200;2023-03-18T02:44:38;100970.11;;;5.23;44.93
25510;BME280;13413;52.336;21.200;2023-03-18T02:56:22;100961.23;;;5.20;45.13
25510;BME280;13413;52.336;21.200;2023-03-18T02:59:15;100960.45;;;5.17;45.08
25510;BME280;13413;52.336;21.200;2023-03-18T03:02:07;100959.41;;;5.17;45.09
25510;BME280;13413;52.336;21.200;2023-03-18T03:04:59;100957.11;;;5.11;45.03
25510;BME280;13413;52.336;21.200;2023-03-18T03:07:51;100951.81;;;5.11;44.99
25510;BME280;13413;52.336;21.200;2023-03-18T03:10:44;100949.98;;;5.14;44.84
25510;BME280;13413;52.336;21.200;2023-03-18T03:13:39;100948.56;;;5.19;45.01
25510;BME280;13413;52.336;21.200;2023-03-18T03:16:31;100945.34;;;5.13;44.81
25510;BME280;13413;52.336;21.200;2023-03-18T03:19:23;100945.67;;;5.09;44.76
25510;BME280;13413;52.336;21.200;2023-03-18T03:22:16;100949.55;;;5.09;44.69
25510;BME280;13413;52.336;21.200;2023-03-18T03:25:09;100948.20;;;5.10;44.52
25510;BME280;13413;52.336;21.200;2023-03-18T03:28:02;100947.45;;;5.02;44.63
25510;BME280;13413;52.336;21.200;2023-03-18T03:30:55;100947.55;;;5.01;44.44
25510;BME280;13413;52.336;21.200;2023-03-18T03:33:48;100946.12;;;5.04;44.42
25510;BME280;13413;52.336;21.200;2023-03-18T03:36:42;100950.46;;;5.04;44.24
25510;BME280;13413;52.336;21.200;2023-03-18T03:39:34;100948.64;;;5.05;44.27
25510;BME280;13413;52.336;21.200;2023-03-18T03:42:26;100948.60;;;5.01;44.20
25510;BME280;13413;52.336;21.200;2023-03-18T03:45:19;100946.41;;;5.02;44.22
25510;BME280;13413;52.336;21.200;2023-03-18T03:48:11;100951.23;;;5.03;44.29
25510;BME280;13413;52.336;21.200;2023-03-18T03:51:03;100951.02;;;4.99;44.22
25510;BME280;13413;52.336;21.200;2023-03-18T03:53:55;100952.90;;;5.00;44.20
25510;BME280;13413;52.336;21.200;2023-03-18T03:56:48;100954.16;;;4.97;44.30
25510;BME280;13413;52.336;21.200;2023-03-18T03:59:40;100950.63;;;4.96;44.33
25510;BME280;13413;52.336;21.200;2023-03-18T04:02:32;100949.55;;;4.94;44.52
25510;BME280;13413;52.336;21.200;2023-03-18T04:05:24;100944.30;;;4.88;44.31
25510;BME280;13413;52.336;21.200;2023-03-18T04:08:17;100948.28;;;4.90;44.47
25510;BME280;13413;52.336;21.200;2023-03-18T04:11:09;100950.67;;;4.87;44.37
25510;BME280;13413;52.336;21.200;2023-03-18T04:14:01;100951.42;;;4.84;44.64
25510;BME280;13413;52.336;21.200;2023-03-18T04:16:52;100954.53;;;4.78;44.73
25510;BME280;13413;52.336;21.200;2023-03-18T04:19:45;100952.26;;;4.76;44.71
25510;BME280;13413;52.336;21.200;2023-03-18T04:22:37;100954.27;;;4.77;44.90
25510;BME280;13413;52.336;21.200;2023-03-18T04:25:29;100954.15;;;4.72;44.91
25510;BME280;13413;52.336;21.200;2023-03-18T04:28:21;100959.69;;;4.67;45.07
25510;BME280;13413;52.336;21.200;2023-03-18T04:31:14;100965.74;;;4.59;45.19
25510;BME280;13413;52.336;21.200;2023-03-18T04:34:07;100965.15;;;4.55;45.32
25510;BME280;13413;52.336;21.200;2023-03-18T04:37:00;100967.48;;;4.61;45.24
25510;BME280;13413;52.336;21.200;2023-03-18T04:39:52;100969.52;;;4.55;45.53
25510;BME280;13413;52.336;21.200;2023-03-18T04:42:44;100966.30;;;4.45;45.79
25510;BME280;13413;52.336;21.200;2023-03-18T04:45:37;100970.48;;;4.54;45.62
25510;BME280;13413;52.336;21.200;2023-03-18T04:48:29;100968.80;;;4.51;45.71
25510;BME280;13413;52.336;21.200;2023-03-18T04:51:20;100970.06;;;4.46;45.83
25510;BME280;13413;52.336;21.200;2023-03-18T04:54:13;100969.65;;;4.42;46.18
25510;BME280;13413;52.336;21.200;2023-03-18T04:57:06;100977.15;;;4.41;46.08
25510;BME280;13413;52.336;21.200;2023-03-18T04:59:58;100974.05;;;4.42;46.10
25510;BME280;13413;52.336;21.200;2023-03-18T05:02:50;100974.45;;;4.42;46.22
25510;BME280;13413;52.336;21.200;2023-03-18T05:05:42;100979.46;;;4.38;46.26
25510;BME280;13413;52.336;21.200;2023-03-18T05:08:34;100982.96;;;4.38;46.44
25510;BME280;13413;52.336;21.200;2023-03-18T05:17:00;100971.38;;;4.41;46.57
25510;BME280;13413;52.336;21.200;2023-03-18T05:19:53;100972.55;;;4.41;46.73
25510;BME280;13413;52.336;21.200;2023-03-18T05:22:45;100969.52;;;4.38;46.84
25510;BME280;13413;52.336;21.200;2023-03-18T05:25:37;100976.10;;;4.39;46.74
25510;BME280;13413;52.336;21.200;2023-03-18T05:28:29;100975.27;;;4.43;46.95
25510;BME280;13413;52.336;21.200;2023-03-18T05:31:21;100980.91;;;4.44;46.75
25510;BME280;13413;52.336;21.200;2023-03-18T05:34:13;100982.57;;;4.43;47.01
25510;BME280;13413;52.336;21.200;2023-03-18T05:37:06;100984.60;;;4.46;46.88
25510;BME280;13413;52.336;21.200;2023-03-18T05:39:59;100978.64;;;4.53;46.80
25510;BME280;13413;52.336;21.200;2023-03-18T05:42:51;100974.41;;;4.57;47.04
25510;BME280;13413;52.336;21.200;2023-03-18T05:45:43;100965.89;;;4.59;46.95
25510;BME280;13413;52.336;21.200;2023-03-18T05:48:35;100967.17;;;4.62;46.91
25510;BME280;13413;52.336;21.200;2023-03-18T05:51:27;100963.74;;;4.59;46.73
25510;BME280;13413;52.336;21.200;2023-03-18T05:54:19;100963.05;;;4.66;46.87
25510;BME280;13413;52.336;21.200;2023-03-18T05:57:11;100962.42;;;4.72;46.80
25510;BME280;13413;52.336;21.200;2023-03-18T06:00:03;100960.38;;;4.77;46.68
25510;BME280;13413;52.336;21.200;2023-03-18T06:02:56;100963.64;;;4.80;46.42
25510;BME280;13413;52.336;21.200;2023-03-18T06:05:49;100959.39;;;4.87;46.37
25510;BME280;13413;52.336;21.200;2023-03-18T06:08:41;100958.55;;;4.95;46.60
25510;BME280;13413;52.336;21.200;2023-03-18T06:11:33;100957.03;;;4.99;46.10
25510;BME280;13413;52.336;21.200;2023-03-18T06:14:26;100955.12;;;5.11;46.25
25510;BME280;13413;52.336;21.200;2023-03-18T06:17:18;100957.22;;;5.18;46.01
25510;BME280;13413;52.336;21.200;2023-03-18T06:20:11;100960.26;;;5.28;45.77
25510;BME280;13413;52.336;21.200;2023-03-18T06:23:04;100959.13;;;5.39;45.65
25510;BME280;13413;52.336;21.200;2023-03-18T06:25:56;100959.02;;;5.53;45.67
25510;BME280;13413;52.336;21.200;2023-03-18T06:28:48;100957.65;;;5.65;45.53
25510;BME280;13413;52.336;21.200;2023-03-18T06:31:41;100953.67;;;5.77;45.32
25510;BME280;13413;52.336;21.200;2023-03-18T06:34:33;100957.50;;;5.83;44.86
25510;BME280;13413;52.336;21.200;2023-03-18T06:37:25;100954.57;;;5.93;44.83
25510;BME280;13413;52.336;21.200;2023-03-18T06:40:17;100952.86;;;6.05;44.67
25510;BME280;13413;52.336;21.200;2023-03-18T06:43:10;100951.55;;;6.16;44.65
25510;BME280;13413;52.336;21.200;2023-03-18T06:46:02;100949.02;;;6.21;43.90
25510;BME280;13413;52.336;21.200;2023-03-18T06:48:55;100953.40;;;6.23;43.65
25510;BME280;13413;52.336;21.200;2023-03-18T06:51:47;100957.83;;;6.36;43.50
25510;BME280;13413;52.336;21.200;2023-03-18T06:54:40;100954.50;;;6.54;43.54
25510;BME280;13413;52.336;21.200;2023-03-18T06:57:32;100955.14;;;6.69;43.30
25510;BME280;13413;52.336;21.200;2023-03-18T07:00:24;100956.90;;;6.74;42.95
25510;BME280;13413;52.336;21.200;2023-03-18T07:03:17;100959.07;;;6.93;42.97
25510;BME280;13413;52.336;21.200;2023-03-18T07:06:09;100954.61;;;7.08;42.55
25510;BME280;13413;52.336;21.200;2023-03-18T07:09:01;100952.61;;;7.04;41.96
25510;BME280;13413;52.336;21.200;2023-03-18T07:11:54;100955.05;;;7.22;42.03
25510;BME280;13413;52.336;21.200;2023-03-18T07:14:46;100953.44;;;7.37;41.52
25510;BME280;13413;52.336;21.200;2023-03-18T07:17:38;100952.02;;;7.43;40.54
25510;BME280;13413;52.336;21.200;2023-03-18T07:20:30;100951.73;;;7.54;40.91
25510;BME280;13413;52.336;21.200;2023-03-18T07:23:22;100952.67;;;7.57;40.21
25510;BME280;13413;52.336;21.200;2023-03-18T07:26:14;100953.96;;;7.73;39.91
25510;BME280;13413;52.336;21.200;2023-03-18T07:29:06;100960.02;;;7.92;40.07
25510;BME280;13413;52.336;21.200;2023-03-18T07:36:53;100951.48;;;8.09;38.06
25510;BME280;13413;52.336;21.200;2023-03-18T07:39:45;100961.42;;;8.10;37.62
25510;BME280;13413;52.336;21.200;2023-03-18T07:42:37;100965.34;;;8.21;37.38
25510;BME280;13413;52.336;21.200;2023-03-18T07:45:29;100967.16;;;8.31;37.56
25510;BME280;13413;52.336;21.200;2023-03-18T07:48:22;100968.48;;;8.37;37.37
25510;BME280;13413;52.336;21.200;2023-03-18T07:51:15;100960.30;;;8.50;37.17
25510;BME280;13413;52.336;21.200;2023-03-18T07:54:07;100959.34;;;8.54;36.83
25510;BME280;13413;52.336;21.200;2023-03-18T07:56:59;100958.27;;;8.54;37.03
25510;BME280;13413;52.336;21.200;2023-03-18T07:59:52;100959.14;;;8.69;36.97
25510;BME280;13413;52.336;21.200;2023-03-18T08:02:44;100958.04;;;8.76;36.83
25510;BME280;13413;52.336;21.200;2023-03-18T08:05:35;100957.92;;;8.94;37.01
25510;BME280;13413;52.336;21.200;2023-03-18T08:08:27;100955.95;;;9.05;36.80
25510;BME280;13413;52.336;21.200;2023-03-18T08:14:30;100954.44;;;9.20;36.70
25510;BME280;13413;52.336;21.200;2023-03-18T08:17:23;100959.23;;;9.21;36.58
25510;BME280;13413;52.336;21.200;2023-03-18T08:20:14;100953.41;;;9.21;36.73
25510;BME280;13413;52.336;21.200;2023-03-18T08:23:06;100955.08;;;9.41;36.66
25510;BME280;13413;52.336;21.200;2023-03-18T08:25:58;100952.36;;;9.54;36.46
25510;BME280;13413;52.336;21.200;2023-03-18T08:28:50;100951.16;;;9.62;36.21
25510;BME280;13413;52.336;21.200;2023-03-18T08:31:43;100943.80;;;9.69;36.35
25510;BME280;13413;52.336;21.200;2023-03-18T08:34:35;100940.52;;;9.84;36.24
25510;BME280;13413;52.336;21.200;2023-03-18T08:37:28;100939.55;;;10.00;36.14
25510;BME280;13413;52.336;21.200;2023-03-18T08:40:21;100934.82;;;10.11;36.16
25510;BME280;13413;52.336;21.200;2023-03-18T08:43:14;100934.77;;;10.26;36.08
25510;BME280;13413;52.336;21.200;2023-03-18T08:46:06;100928.79;;;10.20;35.55
25510;BME280;13413;52.336;21.200;2023-03-18T08:48:58;100933.31;;;10.09;35.11
25510;BME280;13413;52.336;21.200;2023-03-18T08:51:51;100926.50;;;10.06;35.34
25510;BME280;13413;52.336;21.200;2023-03-18T08:54:44;100921.43;;;10.16;35.48
25510;BME280;13413;52.336;21.200;2023-03-18T08:57:38;100917.16;;;10.29;35.25
25510;BME280;13413;52.336;21.200;2023-03-18T09:00:31;100911.49;;;10.47;35.22
25510;BME280;13413;52.336;21.200;2023-03-18T09:03:24;100911.31;;;10.54;35.38
25510;BME280;13413;52.336;21.200;2023-03-18T09:06:16;100912.16;;;10.62;35.09
25510;BME280;13413;52.336;21.200;2023-03-18T09:09:08;100910.89;;;10.76;35.09
25510;BME280;13413;52.336;21.200;2023-03-18T09:12:01;100909.54;;;10.97;35.00
25510;BME280;13413;52.336;21.200;2023-03-18T09:14:53;100908.71;;;11.15;34.97
25510;BME280;13413;52.336;21.200;2023-03-18T09:17:46;100908.86;;;11.24;34.10
25510;BME280;13413;52.336;21.200;2023-03-18T09:20:37;100908.38;;;11.30;34.15
25510;BME280;13413;52.336;21.200;2023-03-18T09:23:30;100907.88;;;11.47;34.12
25510;BME280;13413;52.336;21.200;2023-03-18T09:26:21;100906.38;;;11.46;33.63
25510;BME280;13413;52.336;21.200;2023-03-18T09:29:14;100906.08;;;11.49;33.68
25510;BME280;13413;52.336;21.200;2023-03-18T09:32:06;100907.73;;;11.59;33.18
25510;BME280;13413;52.336;21.200;2023-03-18T09:34:59;100901.82;;;11.75;33.39
25510;BME280;13413;52.336;21.200;2023-03-18T09:37:51;100904.70;;;11.93;33.40
25510;BME280;13413;52.336;21.200;2023-03-18T09:43:50;100894.91;;;12.18;33.15
25510;BME280;13413;52.336;21.200;2023-03-18T09:46:51;100896.10;;;12.39;33.08
25510;BME280;13413;52.336;21.200;2023-03-18T09:49:48;100895.45;;;12.61;32.99
25510;BME280;13413;52.336;21.200;2023-03-18T09:52:44;100896.48;;;12.78;32.49
25510;BME280;13413;52.336;21.200;2023-03-18T09:55:38;100890.92;;;12.72;32.31
25510;BME280;13413;52.336;21.200;2023-03-18T09:58:34;100892.39;;;12.81;32.09
25510;BME280;13413;52.336;21.200;2023-03-18T10:01:34;100883.98;;;12.86;32.16
25510;BME280;13413;52.336;21.200;2023-03-18T10:04:31;100884.55;;;13.13;32.05
25510;BME280;13413;52.336;21.200;2023-03-18T10:07:26;100881.23;;;13.34;31.77
25510;BME280;13413;52.336;21.200;2023-03-18T10:10:23;100881.97;;;13.57;31.82
25510;BME280;13413;52.336;21.200;2023-03-18T10:13:18;100877.65;;;13.68;31.63
25510;BME280;13413;52.336;21.200;2023-03-18T10:21:39;100876.50;;;13.30;31.10
25510;BME280;13413;52.336;21.200;2023-03-18T10:24:35;100875.55;;;13.28;30.96
25510;BME280;13413;52.336;21.200;2023-03-18T10:27:32;100876.79;;;13.38;31.16
25510;BME280;13413;52.336;21.200;2023-03-18T10:30:42;100869.65;;;13.35;31.06
25510;BME280;13413;52.336;21.200;2023-03-18T10:33:43;100864.52;;;13.59;30.39
25510;BME280;13413;52.336;21.200;2023-03-18T10:36:41;100859.15;;;13.65;30.27
25510;BME280;13413;52.336;21.200;2023-03-18T10:39:37;100857.89;;;13.65;30.34
25510;BME280;13413;52.336;21.200;2023-03-18T10:42:30;100856.48;;;13.80;30.80
25510;BME280;13413;52.336;21.200;2023-03-18T10:45:24;100855.06;;;14.24;30.70
25510;BME280;13413;52.336;21.200;2023-03-18T10:48:17;100851.98;;;14.49;30.01
25510;BME280;13413;52.336;21.200;2023-03-18T10:51:13;100847.95;;;14.50;29.86
25510;BME280;13413;52.336;21.200;2023-03-18T10:54:09;100848.05;;;14.37;30.02
25510;BME280;13413;52.336;21.200;2023-03-18T10:57:02;100846.98;;;14.63;30.69
25510;BME280;13413;52.336;21.200;2023-03-18T10:59:55;100842.60;;;14.72;30.28
25510;BME280;13413;52.336;21.200;2023-03-18T11:02:47;100841.55;;;14.54;29.48
25510;BME280;13413;52.336;21.200;2023-03-18T11:05:39;100841.83;;;14.76;30.46
25510;BME280;13413;52.336;21.200;2023-03-18T11:08:35;100843.15;;;15.14;30.01
25510;BME280;13413;52.336;21.200;2023-03-18T11:11:29;100837.73;;;15.24;29.92
25510;BME280;13413;52.336;21.200;2023-03-18T11:14:22;100836.92;;;15.13;29.53
25510;BME280;13413;52.336;21.200;2023-03-18T11:17:21;100832.58;;;14.86;29.64
25510;BME280;13413;52.336;21.200;2023-03-18T11:20:19;100833.73;;;15.19;30.02
25510;BME280;13413;52.336;21.200;2023-03-18T11:23:15;100829.40;;;15.44;29.92
25510;BME280;13413;52.336;21.200;2023-03-18T11:26:08;100823.56;;;15.68;29.70
25510;BME280;13413;52.336;21.200;2023-03-18T11:29:04;100823.04;;;15.75;29.14
25510;BME280;13413;52.336;21.200;2023-03-18T11:31:56;100824.66;;;15.74;29.22
25510;BME280;13413;52.336;21.200;2023-03-18T11:34:50;100822.66;;;15.34;28.89
25510;BME280;13413;52.336;21.200;2023-03-18T11:37:45;100821.11;;;15.14;29.32
25510;BME280;13413;52.336;21.200;2023-03-18T11:40:38;100812.53;;;14.95;29.04
25510;BME280;13413;52.336;21.200;2023-03-18T11:43:30;100807.81;;;14.87;29.41
25510;BME280;13413;52.336;21.200;2023-03-18T11:46:22;100810.14;;;15.15;29.78
25510;BME280;13413;52.336;21.200;2023-03-18T11:49:16;100806.83;;;15.62;29.62
25510;BME280;13413;52.336;21.200;2023-03-18T11:52:20;100796.88;;;15.96;29.28
25510;BME280;13413;52.336;21.200;2023-03-18T11:55:18;100797.58;;;15.79;29.03
25510;BME280;13413;52.336;21.200;2023-03-18T12:01:19;100796.88;;;15.63;29.25
25510;BME280;13413;52.336;21.200;2023-03-18T12:04:15;100797.88;;;15.66;29.10
25510;BME280;13413;52.336;21.200;2023-03-18T12:07:20;100791.14;;;15.67;28.73
25510;BME280;13413;52.336;21.200;2023-03-18T12:10:17;100787.81;;;15.76;29.45
25510;BME280;13413;52.336;21.200;2023-03-18T12:16:22;100788.73;;;16.10;28.95
25510;BME280;13413;52.336;21.200;2023-03-18T12:19:25;100789.57;;;16.28;29.17
25510;BME280;13413;52.336;21.200;2023-03-18T12:22:34;100785.77;;;16.39;28.88
25510;BME280;13413;52.336;21.200;2023-03-18T12:25:33;100778.52;;;16.44;28.84
25510;BME280;13413;52.336;21.200;2023-03-18T12:28:37;100777.23;;;16.16;28.59
25510;BME280;13413;52.336;21.200;2023-03-18T12:31:37;100776.85;;;15.91;28.77
25510;BME280;13413;52.336;21.200;2023-03-18T12:34:35;100775.48;;;15.70;28.50
25510;BME280;13413;52.336;21.200;2023-03-18T12:41:39;100765.64;;;15.71;28.85
25510;BME280;13413;52.336;21.200;2023-03-18T12:44:39;100762.38;;;15.95;29.15
25510;BME280;13413;52.336;21.200;2023-03-18T12:47:35;100759.38;;;16.09;28.94
25510;BME280;13413;52.336;21.200;2023-03-18T12:50:32;100756.77;;;16.17;28.30
25510;BME280;13413;52.336;21.200;2023-03-18T12:53:27;100763.11;;;16.19;28.34
25510;BME280;13413;52.336;21.200;2023-03-18T12:56:22;100758.84;;;16.11;28.02
25510;BME280;13413;52.336;21.200;2023-03-18T12:59:15;100755.63;;;15.96;27.80
25510;BME280;13413;52.336;21.200;2023-03-18T13:02:38;100752.98;;;15.82;27.78
25510;BME280;13413;52.336;21.200;2023-03-18T13:05:35;100746.20;;;15.72;27.48
25510;BME280;13413;52.336;21.200;2023-03-18T13:08:39;100740.70;;;15.66;27.43
25510;BME280;13413;52.336;21.200;2023-03-18T13:11:38;100744.09;;;15.43;27.00
25510;BME280;13413;52.336;21.200;2023-03-18T13:14:38;100740.27;;;15.35;27.02
25510;BME280;13413;52.336;21.200;2023-03-18T13:17:33;100740.45;;;15.19;26.55
25510;BME280;13413;52.336;21.200;2023-03-18T13:20:27;100734.52;;;14.99;26.67
25510;BME280;13413;52.336;21.200;2023-03-18T13:23:26;100731.85;;;15.06;26.96
25510;BME280;13413;52.336;21.200;2023-03-18T13:26:39;100732.83;;;15.15;27.13
25510;BME280;13413;52.336;21.200;2023-03-18T13:29:37;100731.89;;;15.39;27.38
25510;BME280;13413;52.336;21.200;2023-03-18T13:32:36;100721.40;;;15.44;26.98
25510;BME280;13413;52.336;21.200;2023-03-18T13:38:46;100720.09;;;15.31;27.10
25510;BME280;13413;52.336;21.200;2023-03-18T13:44:54;100709.34;;;15.16;27.47
25510;BME280;13413;52.336;21.200;2023-03-18T13:47:54;100713.95;;;15.18;27.78
25510;BME280;13413;52.336;21.200;2023-03-18T13:50:48;100703.91;;;15.37;27.86
25510;BME280;13413;52.336;21.200;2023-03-18T13:53:41;100701.50;;;15.42;27.51
25510;BME280;13413;52.336;21.200;2023-03-18T13:56:43;100706.54;;;15.45;27.45
25510;BME280;13413;52.336;21.200;2023-03-18T13:59:43;100698.87;;;15.41;27.33
25510;BME280;13413;52.336;21.200;2023-03-18T14:02:42;100698.14;;;15.43;27.50
25510;BME280;13413;52.336;21.200;2023-03-18T14:05:37;100696.00;;;15.49;27.36
25510;BME280;13413;52.336;21.200;2023-03-18T14:08:46;100691.95;;;15.47;27.41
25510;BME280;13413;52.336;21.200;2023-03-18T14:11:44;100692.34;;;15.44;27.46
25510;BME280;13413;52.336;21.200;2023-03-18T14:14:40;100694.14;;;15.41;27.47
25510;BME280;13413;52.336;21.200;2023-03-18T14:17:45;100687.23;;;15.16;27.39
25510;BME280;13413;52.336;21.200;2023-03-18T14:20:38;100688.23;;;15.35;27.86
25510;BME280;13413;52.336;21.200;2023-03-18T14:23:41;100690.03;;;15.43;27.50
25510;BME280;13413;52.336;21.200;2023-03-18T14:26:34;100686.45;;;15.39;27.52
25510;BME280;13413;52.336;21.200;2023-03-18T14:29:27;100687.77;;;15.31;27.74
25510;BME280;13413;52.336;21.200;2023-03-18T14:32:35;100686.79;;;15.10;27.60
25510;BME280;13413;52.336;21.200;2023-03-18T14:35:28;100687.14;;;14.83;27.61
25510;BME280;13413;52.336;21.200;2023-03-18T14:38:23;100687.46;;;14.65;27.70
25510;BME280;13413;52.336;21.200;2023-03-18T14:41:18;100688.02;;;14.44;27.63
25510;BME280;13413;52.336;21.200;2023-03-18T14:44:17;100684.10;;;14.34;27.52
25510;BME280;13413;52.336;21.200;2023-03-18T14:47:15;100680.20;;;14.25;27.60
25510;BME280;13413;52.336;21.200;2023-03-18T14:50:13;100675.59;;;14.16;27.69
25510;BME280;13413;52.336;21.200;2023-03-18T14:53:09;100676.04;;;14.16;27.85
25510;BME280;13413;52.336;21.200;2023-03-18T15:02:02;100667.67;;;14.21;28.36
25510;BME280;13413;52.336;21.200;2023-03-18T15:04:57;100665.12;;;14.25;28.67
25510;BME280;13413;52.336;21.200;2023-03-18T15:07:50;100668.12;;;14.25;28.96
25510;BME280;13413;52.336;21.200;2023-03-18T15:10:44;100671.11;;;14.20;29.05
25510;BME280;13413;52.336;21.200;2023-03-18T15:13:39;100668.52;;;14.20;29.34
25510;BME280;13413;52.336;21.200;2023-03-18T15:16:31;100670.09;;;14.20;29.48
25510;BME280;13413;52.336;21.200;2023-03-18T15:19:23;100668.44;;;14.14;29.59
25510;BME280;13413;52.336;21.200;2023-03-18T15:22:17;100672.41;;;14.09;30.04
25510;BME280;13413;52.336;21.200;2023-03-18T15:25:15;100668.25;;;14.13;30.16
25510;BME280;13413;52.336;21.200;2023-03-18T15:28:10;100664.66;;;14.14;30.19
25510;BME280;13413;52.336;21.200;2023-03-18T15:31:07;100670.13;;;14.08;30.41
25510;BME280;13413;52.336;21.200;2023-03-18T15:34:10;100668.58;;;13.97;30.50
25510;BME280;13413;52.336;21.200;2023-03-18T15:37:22;100668.09;;;13.88;30.68
25510;BME280;13413;52.336;21.200;2023-03-18T15:40:16;100668.87;;;13.85;30.89
25510;BME280;13413;52.336;21.200;2023-03-18T15:43:15;100668.83;;;13.81;30.93
25510;BME280;13413;52.336;21.200;2023-03-18T15:46:14;100667.33;;;13.71;31.11
25510;BME280;13413;52.336;21.200;2023-03-18T15:49:09;100670.35;;;13.66;31.27
25510;BME280;13413;52.336;21.200;2023-03-18T15:52:02;100669.98;;;13.60;31.47
25510;BME280;13413;52.336;21.200;2023-03-18T15:54:54;100668.77;;;13.50;31.46
25510;BME280;13413;52.336;21.200;2023-03-18T15:57:47;100668.63;;;13.42;31.65
25510;BME280;13413;52.336;21.200;2023-03-18T16:00:39;100674.46;;;13.44;31.80
25510;BME280;13413;52.336;21.200;2023-03-18T16:03:32;100671.16;;;13.42;31.88
25510;BME280;13413;52.336;21.200;2023-03-18T16:06:24;100674.34;;;13.40;32.09